Time;durP1;ratioP1;P1;durP2;ratioP2;P2;SDS_P1;SDS_P2;PMS_P1;PMS_P2;Temp;Humidity;BMP_temperature;BMP_pressure;BME280_temperature;BME280_humidity;BME280_pressure;Samples;Min_cycle;Max_cycle;Signal;HPM_P1;HPM_P2
2021/01/30 00:01:15;;;;;;;1.65;0.55;;;;;;;;;;5053511;28;20041;-56
2021/01/30 00:03:44;;;;;;;1.98;0.95;;;;;;;;;;5034681;28;20413;-57
2021/01/30 00:06:19;;;;;;;1.05;0.55;;;;;;;;;;5052341;28;20078;-56
2021/01/30 00:09:26;;;;;;;3.53;1.02;;;;;;;;;;5052937;28;20025;-56
2021/01/30 00:12:06;;;;;;;1.88;1.40;;;;;;;;;;5073577;28;20469;-57
2021/01/30 00:14:49;;;;;;;0.98;0.40;;;;;;;;;;5066062;28;20367;-56
2021/01/30 00:17:47;;;;;;;2.15;0.98;;;;;;;;;;5052213;28;20033;-56
2021/01/30 00:20:35;;;;;;;0.68;0.35;;;;;;;;;;5053141;28;20048;-56
2021/01/30 00:23:20;;;;;;;2.13;0.50;;;;;;;;;;5052657;28;20081;-56
2021/01/30 00:26:13;;;;;;;2.47;0.80;;;;;;;;;;5051961;28;20091;-56
2021/01/30 00:28:54;;;;;;;1.40;0.70;;;;;;;;;;5059150;28;20096;-56
2021/01/30 00:31:27;;;;;;;1.33;0.50;;;;;;;;;;5052689;28;20047;-57
2021/01/30 00:34:05;;;;;;;2.90;1.08;;;;;;;;;;5052337;28;20028;-56
2021/01/30 00:36:44;;;;;;;1.02;0.43;;;;;;;;;;5051874;28;20478;-58
2021/01/30 00:39:16;;;;;;;0.60;0.20;;;;;;;;;;5051794;28;20397;-57
2021/01/30 00:42:14;;;;;;;2.45;0.50;;;;;;;;;;5050928;28;20229;-57
2021/01/30 00:45:03;;;;;;;;;;;;;;;;;;;;;
2021/01/30 00:47:41;;;;;;;1.08;0.35;;;;;;;;;;5051684;28;20459;-57
2021/01/30 00:50:14;;;;;;;3.60;0.90;;;;;;;;;;5052096;28;20058;-56
2021/01/30 00:53:01;;;;;;;1.45;0.77;;;;;;;;;;5052265;28;20126;-57
2021/01/30 00:55:49;;;;;;;1.50;0.47;;;;;;;;;;5051879;28;20052;-57
2021/01/30 00:58:34;;;;;;;5.90;1.13;;;;;;;;;;5051940;28;20029;-57
2021/01/30 01:04:08;;;;;;;5.83;0.80;;;;;;;;;;5051283;28;20043;-57
2021/01/30 01:06:56;;;;;;;0.75;0.30;;;;;;;;;;5051845;28;20082;-57
2021/01/30 01:12:30;;;;;;;;;;;;;;;;;;;;;
2021/01/30 01:14:56;;;;;;;0.20;0.15;;;;;;;;;;5055813;28;20033;-57
2021/01/30 01:17:32;;;;;;;0.37;0.20;;;;;;;;;;5050937;28;20097;-58
2021/01/30 01:20:06;;;;;;;1.52;0.40;;;;;;;;;;5051866;28;20025;-57
2021/01/30 01:22:45;;;;;;;1.00;0.43;;;;;;;;;;5032950;28;20033;-57
2021/01/30 01:25:27;;;;;;;0.30;0.20;;;;;;;;;;5051571;28;20482;-57
2021/01/30 01:28:16;;;;;;;4.53;0.80;;;;;;;;;;5137070;27;20124;-56
2021/01/30 01:31:05;;;;;;;0.63;0.33;;;;;;;;;;5057800;27;20048;-57
2021/01/30 01:33:31;;;;;;;0.50;0.20;;;;;;;;;;5050919;28;20033;-58
2021/01/30 01:36:19;;;;;;;0.80;0.30;;;;;;;;;;5049235;28;20127;-56
2021/01/30 01:38:55;;;;;;;1.67;0.70;;;;;;;;;;5051165;28;20021;-57
2021/01/30 01:41:21;;;;;;;1.00;0.52;;;;;;;;;;5050857;28;20025;-57
2021/01/30 01:47:07;;;;;;;1.17;0.40;;;;;;;;;;5039107;28;20127;-57
2021/01/30 01:49:36;;;;;;;0.98;0.43;;;;;;;;;;5052467;28;20045;-57
2021/01/30 01:52:27;;;;;;;1.50;0.30;;;;;;;;;;5050460;28;20025;-56
2021/01/30 01:55:06;;;;;;;0.65;0.28;;;;;;;;;;5053917;28;20109;-57
2021/01/30 01:57:53;;;;;;;0.52;0.22;;;;;;;;;;5051015;28;20056;-56
2021/01/30 02:01:03;;;;;;;0.35;0.30;;;;;;;;;;5053015;28;20041;-55
2021/01/30 02:04:01;;;;;;;0.32;0.15;;;;;;;;;;5137290;27;20033;-58
2021/01/30 02:06:47;;;;;;;0.57;0.40;;;;;;;;;;5051318;28;20055;-58
2021/01/30 02:09:18;;;;;;;1.30;0.50;;;;;;;;;;5050936;28;20017;-55
2021/01/30 02:11:49;;;;;;;2.90;0.63;;;;;;;;;;5051219;28;20029;-57
2021/01/30 02:14:56;;;;;;;0.47;0.20;;;;;;;;;;5051190;28;20029;-57
2021/01/30 02:17:46;;;;;;;0.20;0.10;;;;;;;;;;5050222;28;20128;-57
2021/01/30 02:20:37;;;;;;;0.32;0.13;;;;;;;;;;5032902;28;20029;-58
2021/01/30 02:26:31;;;;;;;0.82;0.20;;;;;;;;;;5050200;28;20044;-57
2021/01/30 02:29:28;;;;;;;0.20;0.10;;;;;;;;;;5050682;28;20029;-57
2021/01/30 02:32:07;;;;;;;0.20;0.10;;;;;;;;;;5050783;28;20116;-57
2021/01/30 02:41:32;;;;;;;0.10;0.03;;;;;;;;;;5039735;28;20044;-57
2021/01/30 02:44:16;;;;;;;1.10;0.40;;;;;;;;;;5055353;27;20045;-57
2021/01/30 02:47:05;;;;;;;0.38;0.17;;;;;;;;;;5049902;28;20041;-57
2021/01/30 02:49:40;;;;;;;0.70;0.30;;;;;;;;;;5032278;28;20128;-58
2021/01/30 02:52:15;;;;;;;2.25;0.40;;;;;;;;;;5050968;28;20021;-56
2021/01/30 02:54:55;;;;;;;2.07;0.50;;;;;;;;;;5050203;28;20026;-57
2021/01/30 02:57:24;;;;;;;2.58;0.17;;;;;;;;;;5049758;28;20062;-56
2021/01/30 02:59:57;;;;;;;0.65;0.30;;;;;;;;;;5050218;28;20425;-57
2021/01/30 03:02:45;;;;;;;0.55;0.30;;;;;;;;;;5052287;28;20077;-57
2021/01/30 03:05:36;;;;;;;2.53;0.30;;;;;;;;;;5053963;28;20028;-57
2021/01/30 03:08:31;;;;;;;0.70;0.40;;;;;;;;;;5053146;28;20036;-58
2021/01/30 03:11:02;;;;;;;0.30;0.20;;;;;;;;;;5053891;28;20037;-57
2021/01/30 03:13:31;;;;;;;1.00;0.50;;;;;;;;;;5053354;28;20029;-57
2021/01/30 03:16:16;;;;;;;0.35;0.10;;;;;;;;;;5053278;28;20093;-58
2021/01/30 03:19:00;;;;;;;2.07;0.20;;;;;;;;;;5053513;28;20104;-57
2021/01/30 03:21:47;;;;;;;;;;;;;;;;;;;;;
2021/01/30 03:27:43;;;;;;;0.65;0.28;;;;;;;;;;5056751;28;20084;-57
2021/01/30 03:30:22;;;;;;;0.77;0.33;;;;;;;;;;5053323;28;20392;-58
2021/01/30 03:33:00;;;;;;;0.57;0.20;;;;;;;;;;5054121;28;20029;-57
2021/01/30 03:35:27;;;;;;;0.57;0.22;;;;;;;;;;5053316;28;20451;-57
2021/01/30 03:38:09;;;;;;;0.55;0.20;;;;;;;;;;5035493;28;20071;-56
2021/01/30 03:40:43;;;;;;;0.60;0.30;;;;;;;;;;5049805;28;20116;-57
2021/01/30 03:43:30;;;;;;;0.50;0.20;;;;;;;;;;5051683;28;20110;-57
2021/01/30 03:46:15;;;;;;;0.85;0.43;;;;;;;;;;5053188;28;20115;-56
2021/01/30 03:51:39;;;;;;;0.57;0.30;;;;;;;;;;5052772;28;20036;-58
2021/01/30 03:54:52;;;;;;;2.53;0.20;;;;;;;;;;5053071;28;20029;-57
2021/01/30 03:57:47;;;;;;;0.27;0.10;;;;;;;;;;5052867;28;20048;-57
2021/01/30 04:00:31;;;;;;;1.23;0.50;;;;;;;;;;5054414;28;20037;-58
2021/01/30 04:03:01;;;;;;;1.23;0.13;;;;;;;;;;5053226;28;20021;-57
2021/01/30 04:05:47;;;;;;;0.00;0.00;;;;;;;;;;5052932;28;20033;-57
2021/01/30 04:08:19;;;;;;;0.20;0.10;;;;;;;;;;5052828;28;20090;-57
2021/01/30 04:11:10;;;;;;;1.30;0.40;;;;;;;;;;5053313;28;20106;-57
2021/01/30 04:13:39;;;;;;;;;;;;;;;;;;5052235;28;20025;-57
2021/01/30 04:22:12;;;;;;;1.15;0.57;;;;;;;;;;5052462;28;20049;-57
2021/01/30 04:24:52;;;;;;;1.30;0.20;;;;;;;;;;5052482;28;20049;-57
2021/01/30 04:27:32;;;;;;;0.43;0.25;;;;;;;;;;5034207;28;20037;-57
2021/01/30 04:30:23;;;;;;;0.55;0.30;;;;;;;;;;5050901;28;20116;-57
2021/01/30 04:33:00;;;;;;;2.03;0.90;;;;;;;;;;5051099;28;20064;-55
2021/01/30 04:35:45;;;;;;;1.93;0.77;;;;;;;;;;5032853;28;20036;-58
2021/01/30 04:38:41;;;;;;;0.90;0.47;;;;;;;;;;5033966;28;20036;-58
2021/01/30 04:41:40;;;;;;;0.20;0.20;;;;;;;;;;5051588;28;20029;-56
2021/01/30 04:44:26;;;;;;;0.33;0.30;;;;;;;;;;5033685;28;20128;-56
2021/01/30 04:47:11;;;;;;;1.53;0.33;;;;;;;;;;5033909;28;20170;-58
2021/01/30 04:49:59;;;;;;;5.73;0.77;;;;;;;;;;5033623;28;20036;-57
2021/01/30 04:52:59;;;;;;;1.80;0.50;;;;;;;;;;5050641;28;20029;-57
2021/01/30 04:55:54;;;;;;;0.20;0.10;;;;;;;;;;5051441;28;20027;-56
2021/01/30 05:01:24;;;;;;;0.50;0.20;;;;;;;;;;5051847;28;20068;-57
2021/01/30 05:04:04;;;;;;;0.80;0.27;;;;;;;;;;5032398;28;20530;-57
2021/01/30 05:07:02;;;;;;;2.50;0.52;;;;;;;;;;5051740;28;20049;-56
2021/01/30 05:09:57;;;;;;;2.33;0.73;;;;;;;;;;5092661;27;20033;-56
2021/01/30 05:12:53;;;;;;;0.57;0.30;;;;;;;;;;5058440;28;20442;-56
2021/01/30 05:15:42;;;;;;;0.50;0.30;;;;;;;;;;5056048;28;20037;-57
2021/01/30 05:18:31;;;;;;;2.27;0.40;;;;;;;;;;5053644;28;20037;-57
2021/01/30 05:24:44;;;;;;;2.40;0.77;;;;;;;;;;5056950;28;20029;-57
2021/01/30 05:27:16;;;;;;;0.50;0.40;;;;;;;;;;5049513;28;20036;-57
2021/01/30 05:30:17;;;;;;;5.33;0.83;;;;;;;;;;5032382;28;20025;-57
2021/01/30 05:32:50;;;;;;;;;;;;;;;;;;5051429;28;20115;-57
2021/01/30 05:35:52;;;;;;;;;;;;;;;;;;;;;
2021/01/30 05:42:17;;;;;;;1.90;0.80;;;;;;;;;;4989017;28;20464;-57
2021/01/30 05:45:19;;;;;;;;;;;;;;;;;;;;;
2021/01/30 05:48:21;;;;;;;6.17;1.27;;;;;;;;;;5022799;28;20049;-56
2021/01/30 05:51:01;;;;;;;2.20;0.40;;;;;;;;;;5014652;28;20033;-57
2021/01/30 05:53:35;;;;;;;4.00;1.65;;;;;;;;;;5031485;28;20351;-57
2021/01/30 05:56:36;;;;;;;1.70;0.83;;;;;;;;;;5029547;28;20108;-57
2021/01/30 05:59:08;;;;;;;;;;;;;;;;;;5029979;28;20034;-57
2021/01/30 06:01:47;;;;;;;3.70;1.20;;;;;;;;;;5030301;28;19905;-57
2021/01/30 06:04:25;;;;;;;5.57;1.33;;;;;;;;;;5022476;28;20061;-57
2021/01/30 06:07:17;;;;;;;2.90;0.97;;;;;;;;;;5029481;28;20155;-57
2021/01/30 06:09:47;;;;;;;3.33;0.80;;;;;;;;;;5039576;28;20069;-57
2021/01/30 06:15:21;;;;;;;2.57;0.83;;;;;;;;;;5031311;28;20109;-57
2021/01/30 06:18:02;;;;;;;4.87;1.07;;;;;;;;;;5031034;28;20053;-58
2021/01/30 06:23:17;;;;;;;3.23;1.03;;;;;;;;;;5018901;28;20075;-58
2021/01/30 06:25:46;;;;;;;2.38;0.80;;;;;;;;;;5029005;28;20033;-58
2021/01/30 06:34:37;;;;;;;1.60;0.50;;;;;;;;;;5024146;28;20045;-57
2021/01/30 06:37:46;;;;;;;1.03;0.63;;;;;;;;;;5031935;28;20033;-57
2021/01/30 06:40:34;;;;;;;5.13;1.27;;;;;;;;;;5030193;28;20046;-58
2021/01/30 06:46:17;;;;;;;9.60;1.57;;;;;;;;;;5013528;28;20050;-57
2021/01/30 06:52:25;;;;;;;1.77;1.23;;;;;;;;;;5016273;28;20038;-57
2021/01/30 06:55:10;;;;;;;10.27;1.87;;;;;;;;;;5015105;28;20083;-57
2021/01/30 06:58:04;;;;;;;3.23;1.00;;;;;;;;;;4996653;28;20030;-57
2021/01/30 07:00:32;;;;;;;4.27;1.83;;;;;;;;;;4996249;28;20026;-58
2021/01/30 07:03:20;;;;;;;9.40;1.63;;;;;;;;;;5045553;28;20504;-58
2021/01/30 07:06:13;;;;;;;2.37;1.03;;;;;;;;;;5011119;28;20034;-57
2021/01/30 07:08:48;;;;;;;3.37;1.77;;;;;;;;;;5014100;28;20049;-57
2021/01/30 07:18:12;;;;;;;5.23;1.83;;;;;;;;;;5026176;28;20057;-57
2021/01/30 07:20:57;;;;;;;6.37;1.27;;;;;;;;;;5013274;28;20030;-57
2021/01/30 07:23:57;;;;;;;9.07;2.03;;;;;;;;;;5014308;28;20018;-58
2021/01/30 07:26:35;;;;;;;5.63;1.97;;;;;;;;;;4995608;28;20121;-57
2021/01/30 07:29:33;;;;;;;4.33;1.50;;;;;;;;;;5013254;28;20459;-57
2021/01/30 07:32:26;;;;;;;5.03;1.60;;;;;;;;;;5013509;28;20061;-56
2021/01/30 07:35:20;;;;;;;4.20;1.27;;;;;;;;;;5013627;28;20022;-57
2021/01/30 07:38:03;;;;;;;6.50;1.73;;;;;;;;;;5013080;28;20184;-58
2021/01/30 07:40:48;;;;;;;10.50;1.87;;;;;;;;;;5013493;28;20026;-57
2021/01/30 07:43:31;;;;;;;4.70;2.10;;;;;;;;;;4999675;28;20034;-57
2021/01/30 07:46:25;;;;;;;9.60;2.00;;;;;;;;;;5094731;28;20048;-55
2021/01/30 07:49:04;;;;;;;3.90;1.07;;;;;;;;;;5015699;28;20065;-56
2021/01/30 07:55:19;;;;;;;5.80;3.00;;;;;;;;;;5013285;28;20069;-57
2021/01/30 07:58:21;;;;;;;6.03;1.30;;;;;;;;;;5056814;28;20050;-57
2021/01/30 08:01:03;;;;;;;3.75;1.67;;;;;;;;;;5013055;28;20038;-57
2021/01/30 08:03:59;;;;;;;;;;;;;;;;;;;;;
2021/01/30 08:06:55;;;;;;;6.50;2.67;;;;;;;;;;5069566;28;20047;-54
2021/01/30 08:12:46;;;;;;;7.85;1.42;;;;;;;;;;5070909;28;20098;-58
2021/01/30 08:15:33;;;;;;;5.13;1.85;;;;;;;;;;5073680;28;20028;-57
2021/01/30 08:18:03;;;;;;;8.32;1.73;;;;;;;;;;5059381;28;20418;-57
2021/01/30 08:20:45;;;;;;;5.78;1.92;;;;;;;;;;5065277;28;20036;-57
2021/01/30 08:23:35;;;;;;;2.70;1.47;;;;;;;;;;5073470;28;20025;-57
2021/01/30 08:26:30;;;;;;;1.88;1.38;;;;;;;;;;5056759;28;20494;-56
2021/01/30 08:29:06;;;;;;;1.98;1.17;;;;;;;;;;5071084;28;20100;-57
2021/01/30 08:32:04;;;;;;;;;;;;;;;;;;;;;
2021/01/30 08:35:08;;;;;;;5.72;2.20;;;;;;;;;;5042973;28;20457;-57
2021/01/30 08:38:01;;;;;;;6.93;1.60;;;;;;;;;;5014540;28;20118;-57
2021/01/30 08:40:51;;;;;;;5.63;2.42;;;;;;;;;;4995361;28;20034;-55
2021/01/30 08:43:36;;;;;;;3.92;1.42;;;;;;;;;;5012909;28;20034;-56
2021/01/30 08:46:27;;;;;;;9.52;2.15;;;;;;;;;;5012125;28;20054;-57
2021/01/30 08:49:28;;;;;;;11.15;2.30;;;;;;;;;;4994586;28;20034;-57
2021/01/30 08:52:26;;;;;;;4.23;1.80;;;;;;;;;;4995958;28;20033;-57
2021/01/30 08:55:28;;;;;;;5.63;1.10;;;;;;;;;;5013011;28;20065;-56
2021/01/30 08:57:57;;;;;;;;;;;;;;;;;;4995174;28;20038;-57
2021/01/30 09:00:29;;;;;;;6.80;3.10;;;;;;;;;;5012402;28;19906;-57
2021/01/30 09:03:12;;;;;;;10.00;2.03;;;;;;;;;;5012182;28;20036;-57
2021/01/30 09:05:48;;;;;;;7.78;1.50;;;;;;;;;;5012525;28;20026;-56
2021/01/30 09:11:38;;;;;;;6.82;3.03;;;;;;;;;;5028715;28;20034;-57
2021/01/30 09:14:28;;;;;;;7.03;2.13;;;;;;;;;;5010563;28;20460;-57
2021/01/30 09:17:05;;;;;;;7.28;1.73;;;;;;;;;;5012039;28;20026;-57
2021/01/30 09:23:03;;;;;;;6.32;2.53;;;;;;;;;;5011908;28;20040;-57
2021/01/30 09:25:55;;;;;;;7.47;2.47;;;;;;;;;;5011446;28;20057;-57
2021/01/30 09:28:54;;;;;;;3.92;1.48;;;;;;;;;;5011673;28;20041;-57
2021/01/30 09:31:39;;;;;;;8.23;2.80;;;;;;;;;;4989736;28;20039;-58
2021/01/30 09:34:10;;;;;;;4.00;1.80;;;;;;;;;;4989970;28;20042;-57
2021/01/30 09:36:50;;;;;;;5.32;2.13;;;;;;;;;;4989329;28;20031;-57
2021/01/30 09:39:27;;;;;;;4.47;2.30;;;;;;;;;;4989561;28;20106;-57
2021/01/30 09:42:14;;;;;;;4.30;1.58;;;;;;;;;;4974503;28;20603;-57
2021/01/30 09:45:18;;;;;;;4.75;1.52;;;;;;;;;;4998248;28;20054;-57
2021/01/30 09:48:10;;;;;;;3.08;1.35;;;;;;;;;;5005165;28;20044;-57
2021/01/30 09:51:05;;;;;;;4.82;1.67;;;;;;;;;;4997234;28;20034;-57
2021/01/30 09:53:42;;;;;;;;;;;;;;;;;;;;;
2021/01/30 09:56:16;;;;;;;5.50;2.33;;;;;;;;;;5022231;28;20056;-58
2021/01/30 09:58:59;;;;;;;8.00;2.28;;;;;;;;;;5030265;28;20060;-58
2021/01/30 10:01:41;;;;;;;11.68;2.72;;;;;;;;;;5030835;28;20082;-58
2021/01/30 10:04:14;;;;;;;7.13;1.60;;;;;;;;;;5013592;28;20034;-58
2021/01/30 10:06:46;;;;;;;9.57;2.60;;;;;;;;;;5030524;28;20113;-57
2021/01/30 10:09:22;;;;;;;4.78;1.92;;;;;;;;;;5030073;28;20037;-58
2021/01/30 10:11:59;;;;;;;6.95;1.75;;;;;;;;;;5039289;28;20040;-57
2021/01/30 10:14:31;;;;;;;7.22;2.33;;;;;;;;;;5037506;28;20030;-58
2021/01/30 10:17:19;;;;;;;6.05;2.17;;;;;;;;;;5018554;28;20034;-58
2021/01/30 10:20:12;;;;;;;10.07;2.15;;;;;;;;;;5044450;28;20029;-57
2021/01/30 10:22:42;;;;;;;10.35;2.15;;;;;;;;;;5038660;28;20041;-57
2021/01/30 10:25:31;;;;;;;9.43;2.75;;;;;;;;;;5037119;28;20042;-57
2021/01/30 10:31:29;;;;;;;8.48;2.90;;;;;;;;;;5045064;28;20101;-57
2021/01/30 10:34:15;;;;;;;5.07;2.03;;;;;;;;;;5018758;28;20021;-55
2021/01/30 10:36:58;;;;;;;5.70;1.70;;;;;;;;;;5036649;28;20025;-57
2021/01/30 10:39:24;;;;;;;7.82;1.98;;;;;;;;;;5037617;28;20033;-58
2021/01/30 10:42:14;;;;;;;4.75;1.88;;;;;;;;;;5036216;28;20140;-56
2021/01/30 10:45:02;;;;;;;7.63;2.38;;;;;;;;;;5036548;28;20053;-56
2021/01/30 10:47:31;;;;;;;6.97;2.60;;;;;;;;;;5035061;28;20025;-57
2021/01/30 10:50:06;;;;;;;4.10;2.22;;;;;;;;;;5037978;28;20053;-57
2021/01/30 10:52:59;;;;;;;8.70;1.80;;;;;;;;;;5057277;28;20049;-57
2021/01/30 10:55:39;;;;;;;5.55;1.88;;;;;;;;;;5142229;27;20033;-55
2021/01/30 10:58:24;;;;;;;9.88;2.17;;;;;;;;;;5034980;28;20030;-57
2021/01/30 11:00:59;;;;;;;5.50;1.40;;;;;;;;;;5048256;28;20033;-56
2021/01/30 11:03:49;;;;;;;4.70;1.35;;;;;;;;;;5056446;28;20345;-56
2021/01/30 11:06:43;;;;;;;;;;;;;;;;;;;;;
2021/01/30 11:12:44;;;;;;;1.83;0.65;;;;;;;;;;5045209;28;20429;-55
2021/01/30 11:15:41;;;;;;;3.75;1.50;;;;;;;;;;5056299;27;20065;-57
2021/01/30 11:18:47;;;;;;;6.07;2.15;;;;;;;;;;5037383;28;20045;-56
2021/01/30 11:21:39;;;;;;;3.55;1.52;;;;;;;;;;5038247;28;20116;-57
2021/01/30 11:24:27;;;;;;;6.57;2.20;;;;;;;;;;5052799;28;20025;-56
2021/01/30 11:27:01;;;;;;;9.40;3.17;;;;;;;;;;5033991;28;20065;-56
2021/01/30 11:29:38;;;;;;;6.10;2.90;;;;;;;;;;5050899;28;20105;-58
2021/01/30 11:32:20;;;;;;;4.18;1.25;;;;;;;;;;5034894;28;20466;-56
2021/01/30 11:35:04;;;;;;;3.35;1.60;;;;;;;;;;5053099;28;20340;-57
2021/01/30 11:37:33;;;;;;;7.63;2.10;;;;;;;;;;5052802;28;20033;-57
2021/01/30 11:40:10;;;;;;;4.35;1.55;;;;;;;;;;5034720;28;20116;-57
2021/01/30 11:42:39;;;;;;;5.55;2.17;;;;;;;;;;5052445;28;20378;-56
2021/01/30 11:45:25;;;;;;;10.82;3.67;;;;;;;;;;5052154;27;20049;-57
2021/01/30 11:47:57;;;;;;;4.80;1.65;;;;;;;;;;5035005;28;20489;-57
2021/01/30 11:50:36;;;;;;;11.93;2.92;;;;;;;;;;5051880;28;20033;-57
2021/01/30 11:53:31;;;;;;;2.67;1.35;;;;;;;;;;5034157;28;20052;-57
2021/01/30 11:56:06;;;;;;;9.23;3.22;;;;;;;;;;5131520;27;20434;-58
2021/01/30 11:58:34;;;;;;;5.88;1.75;;;;;;;;;;5052042;28;20022;-57
2021/01/30 12:01:32;;;;;;;4.03;2.05;;;;;;;;;;5033595;28;20122;-56
2021/01/30 12:04:09;;;;;;;;;;;;;;;;;;;;;
2021/01/30 12:06:39;;;;;;;4.93;2.17;;;;;;;;;;5036452;28;20029;-57
2021/01/30 12:09:14;;;;;;;9.50;2.30;;;;;;;;;;5051976;28;20073;-57
2021/01/30 12:11:49;;;;;;;4.32;2.45;;;;;;;;;;5052236;28;20025;-57
2021/01/30 12:14:18;;;;;;;8.07;2.03;;;;;;;;;;5052210;28;20025;-55
2021/01/30 12:16:57;;;;;;;5.47;2.00;;;;;;;;;;5018288;28;20059;-57
2021/01/30 12:19:40;;;;;;;4.95;2.33;;;;;;;;;;5033415;28;20186;-55
2021/01/30 12:22:34;;;;;;;7.60;1.67;;;;;;;;;;5052010;28;20056;-56
2021/01/30 12:25:08;;;;;;;3.97;1.50;;;;;;;;;;5052689;28;20036;-57
2021/01/30 12:28:13;;;;;;;3.38;1.33;;;;;;;;;;5033685;28;20031;-57
2021/01/30 12:30:51;;;;;;;4.40;1.73;;;;;;;;;;5072916;28;20034;-56
2021/01/30 12:33:21;;;;;;;5.40;1.70;;;;;;;;;;5036096;28;20467;-56
2021/01/30 12:35:51;;;;;;;6.82;1.85;;;;;;;;;;5050092;28;20044;-57
2021/01/30 12:38:33;;;;;;;;;;;;;;;;;;;;;
2021/01/30 12:41:04;;;;;;;2.00;0.85;;;;;;;;;;5052455;28;20059;-57
2021/01/30 12:43:39;;;;;;;5.13;2.72;;;;;;;;;;5017764;28;20093;-58
2021/01/30 12:46:22;;;;;;;5.10;1.30;;;;;;;;;;5050504;27;20053;-57
2021/01/30 12:51:57;;;;;;;5.43;1.67;;;;;;;;;;5040442;28;20093;-56
2021/01/30 12:55:00;;;;;;;3.35;1.23;;;;;;;;;;5033173;28;20040;-57
2021/01/30 12:57:30;;;;;;;3.33;1.77;;;;;;;;;;5111889;27;20128;-57
2021/01/30 13:00:12;;;;;;;;;;;;;;;;;;;;;
2021/01/30 13:02:53;;;;;;;4.43;1.50;;;;;;;;;;5055142;28;20462;-56
2021/01/30 13:05:32;;;;;;;7.32;2.05;;;;;;;;;;5035826;28;20073;-57
2021/01/30 13:08:11;;;;;;;7.78;2.17;;;;;;;;;;5033716;28;20061;-55
2021/01/30 13:10:52;;;;;;;6.88;1.85;;;;;;;;;;5050882;28;20025;-57
2021/01/30 13:13:25;;;;;;;6.70;2.67;;;;;;;;;;5051472;28;20032;-56
2021/01/30 13:15:57;;;;;;;8.32;2.25;;;;;;;;;;5050908;28;20425;-57
2021/01/30 13:18:30;;;;;;;4.07;2.15;;;;;;;;;;5032417;28;20040;-55
2021/01/30 13:21:09;;;;;;;5.22;2.22;;;;;;;;;;5051053;28;20021;-57
2021/01/30 13:23:41;;;;;;;3.00;1.52;;;;;;;;;;5022388;28;20477;-56
2021/01/30 13:26:13;;;;;;;5.00;1.77;;;;;;;;;;5032815;28;20037;-57
2021/01/30 13:28:43;;;;;;;6.57;2.28;;;;;;;;;;5032903;28;20033;-57
2021/01/30 13:31:27;;;;;;;7.10;1.90;;;;;;;;;;5051171;28;20029;-57
2021/01/30 13:33:58;;;;;;;3.30;1.85;;;;;;;;;;5050918;28;20025;-56
2021/01/30 13:39:54;;;;;;;7.63;3.58;;;;;;;;;;5051030;28;20395;-55
2021/01/30 13:45:07;;;;;;;6.32;3.60;;;;;;;;;;5050370;27;20088;-57
2021/01/30 13:47:41;;;;;;;2.53;1.25;;;;;;;;;;5048760;27;20053;-57
2021/01/30 13:50:20;;;;;;;2.47;1.48;;;;;;;;;;5032374;28;20033;-58
2021/01/30 13:52:52;;;;;;;3.00;1.67;;;;;;;;;;5031882;28;20489;-57
2021/01/30 13:55:35;;;;;;;5.60;1.15;;;;;;;;;;5044558;28;20033;-57
2021/01/30 13:58:06;;;;;;;2.38;1.60;;;;;;;;;;5034064;28;20037;-57
2021/01/30 14:00:53;;;;;;;1.13;0.43;;;;;;;;;;5050106;28;20025;-57
2021/01/30 14:03:31;;;;;;;2.38;0.95;;;;;;;;;;5050329;28;20082;-56
2021/01/30 14:06:15;;;;;;;1.42;0.88;;;;;;;;;;5050767;28;20044;-55
2021/01/30 14:08:51;;;;;;;5.55;1.05;;;;;;;;;;5050631;28;20518;-57
2021/01/30 14:11:23;;;;;;;4.05;1.10;;;;;;;;;;5033384;28;20458;-57
2021/01/30 14:13:55;;;;;;;2.38;1.33;;;;;;;;;;5032655;28;20028;-58
2021/01/30 14:19:47;;;;;;;3.83;2.25;;;;;;;;;;5046099;28;20072;-57
2021/01/30 14:25:42;;;;;;;2.08;1.15;;;;;;;;;;5039526;28;20029;-57
2021/01/30 14:28:11;;;;;;;4.45;1.48;;;;;;;;;;5049418;28;20064;-57
2021/01/30 14:30:55;;;;;;;;;;;;;;;;;;;;;
2021/01/30 14:33:51;;;;;;;6.57;1.50;;;;;;;;;;5050001;28;20018;-58
2021/01/30 14:36:23;;;;;;;3.45;1.48;;;;;;;;;;5050419;28;20025;-57
2021/01/30 14:42:13;;;;;;;2.58;1.38;;;;;;;;;;5046764;28;20028;-58
2021/01/30 14:48:04;;;;;;;3.03;1.77;;;;;;;;;;5047437;28;20105;-57
2021/01/30 14:50:36;;;;;;;3.95;1.98;;;;;;;;;;5050293;28;20025;-57
2021/01/30 14:53:11;;;;;;;2.95;1.80;;;;;;;;;;5029532;28;20037;-58
2021/01/30 14:56:11;;;;;;;6.53;2.40;;;;;;;;;;5032145;28;20130;-58
2021/01/30 14:59:02;;;;;;;2.28;1.58;;;;;;;;;;5048370;28;20029;-57
2021/01/30 15:01:49;;;;;;;3.00;1.08;;;;;;;;;;5053332;28;20030;-57
2021/01/30 15:04:34;;;;;;;1.48;0.98;;;;;;;;;;5053838;28;20126;-57
2021/01/30 15:07:09;;;;;;;1.25;0.63;;;;;;;;;;5034922;28;20029;-57
2021/01/30 15:09:47;;;;;;;3.08;1.15;;;;;;;;;;5035732;28;20021;-55
2021/01/30 15:15:22;;;;;;;1.80;1.08;;;;;;;;;;5053049;28;20074;-57
2021/01/30 15:18:07;;;;;;;3.35;1.23;;;;;;;;;;5052835;28;20037;-53
2021/01/30 15:23:42;;;;;;;3.85;1.98;;;;;;;;;;5053906;28;20037;-56
2021/01/30 15:26:14;;;;;;;4.30;1.48;;;;;;;;;;5011626;28;20033;-57
2021/01/30 15:28:56;;;;;;;6.45;1.85;;;;;;;;;;5011350;28;20057;-55
2021/01/30 15:31:35;;;;;;;1.98;1.58;;;;;;;;;;5011300;28;20042;-57
2021/01/30 15:34:11;;;;;;;4.75;1.85;;;;;;;;;;5007821;28;20048;-58
2021/01/30 15:36:46;;;;;;;1.88;1.33;;;;;;;;;;5010608;28;20076;-57
2021/01/30 15:39:20;;;;;;;3.40;1.23;;;;;;;;;;5010757;28;20460;-55
2021/01/30 15:41:55;;;;;;;3.30;1.10;;;;;;;;;;5010721;28;20080;-57
2021/01/30 15:44:24;;;;;;;1.60;0.70;;;;;;;;;;4994026;28;20132;-54
2021/01/30 15:47:18;;;;;;;1.77;0.90;;;;;;;;;;5010108;28;20084;-56
2021/01/30 15:49:56;;;;;;;2.60;1.50;;;;;;;;;;5011154;28;20467;-57
2021/01/30 15:52:47;;;;;;;3.05;0.90;;;;;;;;;;5010885;28;20187;-58
2021/01/30 15:55:27;;;;;;;2.40;1.20;;;;;;;;;;5010506;28;20030;-58
2021/01/30 15:58:07;;;;;;;3.95;1.90;;;;;;;;;;5023842;28;20025;-58
2021/01/30 16:00:42;;;;;;;2.08;1.30;;;;;;;;;;5032405;28;20032;-58
2021/01/30 16:03:28;;;;;;;2.17;1.37;;;;;;;;;;5030935;28;20186;-56
2021/01/30 16:06:14;;;;;;;2.17;1.60;;;;;;;;;;5032549;28;20018;-58
2021/01/30 16:09:00;;;;;;;3.20;1.88;;;;;;;;;;5031813;28;20034;-59
2021/01/30 16:11:54;;;;;;;3.90;1.73;;;;;;;;;;5031894;28;20367;-58
2021/01/30 16:14:39;;;;;;;3.35;1.48;;;;;;;;;;5038738;28;20033;-58
2021/01/30 16:17:11;;;;;;;3.40;2.00;;;;;;;;;;5029184;28;20399;-58
2021/01/30 16:20:00;;;;;;;4.67;2.00;;;;;;;;;;5032289;28;20041;-57
2021/01/30 16:22:32;;;;;;;4.13;1.50;;;;;;;;;;5052378;28;20439;-59
2021/01/30 16:25:12;;;;;;;4.43;2.20;;;;;;;;;;5031065;28;20030;-58
2021/01/30 16:28:01;;;;;;;5.67;1.77;;;;;;;;;;5032302;28;20041;-58
2021/01/30 16:30:36;;;;;;;3.05;1.77;;;;;;;;;;5040671;28;20030;-58
2021/01/30 16:33:10;;;;;;;4.57;2.72;;;;;;;;;;5031783;28;20463;-58
2021/01/30 16:41:21;;;;;;;3.27;2.23;;;;;;;;;;5031755;28;20506;-56
2021/01/30 16:44:17;;;;;;;4.22;3.05;;;;;;;;;;5027791;28;20044;-58
2021/01/30 16:49:46;;;;;;;7.85;4.05;;;;;;;;;;5031615;28;20118;-56
2021/01/30 16:52:44;;;;;;;4.63;3.40;;;;;;;;;;5030757;28;20033;-55
2021/01/30 16:55:19;;;;;;;5.87;4.17;;;;;;;;;;5029964;28;20040;-55
2021/01/30 16:57:57;;;;;;;6.22;4.22;;;;;;;;;;5012037;28;20049;-57
2021/01/30 17:00:40;;;;;;;6.60;4.87;;;;;;;;;;5031501;28;20155;-57
2021/01/30 17:03:12;;;;;;;5.13;3.97;;;;;;;;;;5032270;28;20021;-56
2021/01/30 17:05:47;;;;;;;5.33;3.73;;;;;;;;;;5031934;28;20272;-57
2021/01/30 17:08:24;;;;;;;3.60;3.20;;;;;;;;;;5031329;28;20032;-56
2021/01/30 17:11:14;;;;;;;7.07;3.30;;;;;;;;;;5031606;28;20037;-57
2021/01/30 17:14:02;;;;;;;3.65;3.13;;;;;;;;;;5029553;28;20114;-57
2021/01/30 17:17:07;;;;;;;3.23;2.17;;;;;;;;;;5030644;28;20493;-57
2021/01/30 17:19:44;;;;;;;3.10;2.30;;;;;;;;;;5031841;28;20017;-57
2021/01/30 17:22:22;;;;;;;;;;;;;;;;;;;;;
2021/01/30 17:25:06;;;;;;;2.90;2.27;;;;;;;;;;5032645;28;20044;-57
2021/01/30 17:27:53;;;;;;;4.67;2.90;;;;;;;;;;5013611;28;20032;-56
2021/01/30 17:30:38;;;;;;;4.10;2.10;;;;;;;;;;5031333;28;20557;-57
2021/01/30 17:33:13;;;;;;;4.73;2.87;;;;;;;;;;5029472;28;20463;-57
2021/01/30 17:35:43;;;;;;;3.43;2.47;;;;;;;;;;5029225;28;20131;-56
2021/01/30 17:38:21;;;;;;;4.73;2.93;;;;;;;;;;5030560;28;20029;-57
2021/01/30 17:41:03;;;;;;;6.17;3.47;;;;;;;;;;5032293;28;20379;-55
2021/01/30 17:46:36;;;;;;;3.65;3.00;;;;;;;;;;4998311;27;20046;-58
2021/01/30 17:49:35;;;;;;;4.13;3.37;;;;;;;;;;5026359;28;20052;-57
2021/01/30 17:52:11;;;;;;;4.53;2.77;;;;;;;;;;5028822;28;20029;-58
2021/01/30 17:54:51;;;;;;;4.73;3.17;;;;;;;;;;5030643;28;20021;-57
2021/01/30 17:57:17;;;;;;;;;;;;;;;;;;5031887;28;20350;-55
2021/01/30 18:00:04;;;;;;;4.37;2.90;;;;;;;;;;5030281;28;19969;-56
2021/01/30 18:05:32;;;;;;;5.40;3.20;;;;;;;;;;5030287;28;20029;-57
2021/01/30 18:08:27;;;;;;;7.13;3.00;;;;;;;;;;5030058;28;20029;-57
2021/01/30 18:13:48;;;;;;;5.00;3.70;;;;;;;;;;5030490;28;20072;-57
2021/01/30 18:16:37;;;;;;;3.60;2.90;;;;;;;;;;5030577;28;20037;-58
2021/01/30 18:19:06;;;;;;;4.90;3.37;;;;;;;;;;5077492;28;20030;-57
2021/01/30 18:21:53;;;;;;;;;;;;;;;;;;;;;
2021/01/30 18:24:23;;;;;;;4.63;3.60;;;;;;;;;;5008750;28;20040;-57
2021/01/30 18:27:17;;;;;;;8.70;3.43;;;;;;;;;;5008355;28;20361;-57
2021/01/30 18:29:59;;;;;;;4.57;3.37;;;;;;;;;;5008434;28;20120;-57
2021/01/30 18:32:48;;;;;;;4.10;3.67;;;;;;;;;;5008323;28;20435;-57
2021/01/30 18:35:23;;;;;;;7.70;4.67;;;;;;;;;;5011191;28;20034;-57
2021/01/30 18:37:52;;;;;;;7.63;5.43;;;;;;;;;;5011090;28;20083;-57
2021/01/30 18:40:31;;;;;;;5.50;4.43;;;;;;;;;;4978799;28;20038;-58